createdAt,value
2018-07-17T00:02:20.848Z,16.40
2018-07-17T00:04:48.775Z,16.40
2018-07-17T00:07:16.423Z,16.40
2018-07-17T00:09:44.304Z,16.30
2018-07-17T00:12:12.061Z,16.30
2018-07-17T00:14:39.823Z,16.20
2018-07-17T00:17:07.699Z,16.20
2018-07-17T00:19:35.367Z,16.10
2018-07-17T00:22:02.991Z,16.00
2018-07-17T00:24:30.852Z,16.00
2018-07-17T00:26:58.563Z,15.90
2018-07-17T00:32:25.782Z,15.70
2018-07-17T00:35:07.212Z,15.70
2018-07-17T00:37:40.106Z,15.60
2018-07-17T00:40:07.874Z,15.60
2018-07-17T00:42:45.344Z,15.60
2018-07-17T00:45:30.535Z,15.50
2018-07-17T00:47:58.654Z,15.40
2018-07-17T00:50:36.400Z,15.40
2018-07-17T00:53:04.074Z,15.40
2018-07-17T00:55:31.873Z,15.40
2018-07-17T00:57:59.496Z,15.40
2018-07-17T01:00:32.835Z,15.40
2018-07-17T01:03:06.488Z,15.40
2018-07-17T01:05:40.000Z,15.40
2018-07-17T01:08:13.578Z,15.40
2018-07-17T01:10:47.019Z,15.30
2018-07-17T01:13:19.529Z,15.30
2018-07-17T01:15:47.464Z,15.30
2018-07-17T01:18:15.936Z,15.30
2018-07-17T01:20:43.908Z,15.30
2018-07-17T01:23:11.826Z,15.30
2018-07-17T01:25:39.486Z,15.30
2018-07-17T01:28:07.182Z,15.40
2018-07-17T01:30:34.848Z,15.60
2018-07-17T01:33:02.526Z,15.90
2018-07-17T01:35:30.220Z,16.10
2018-07-17T01:37:58.468Z,16.10
2018-07-17T01:40:26.113Z,16.00
2018-07-17T01:43:08.773Z,15.80
2018-07-17T01:45:36.391Z,15.60
2018-07-17T01:48:04.165Z,15.50
2018-07-17T01:50:32.128Z,15.40
2018-07-17T01:52:59.827Z,15.40
2018-07-17T01:55:27.479Z,15.30
2018-07-17T01:57:55.567Z,15.30
2018-07-17T02:00:23.279Z,15.30
2018-07-17T02:02:52.139Z,15.30
2018-07-17T02:05:19.831Z,15.30
2018-07-17T02:07:47.615Z,15.50
2018-07-17T02:10:15.488Z,15.60
2018-07-17T02:12:43.243Z,15.60
2018-07-17T02:15:11.004Z,15.70
2018-07-17T02:17:38.964Z,15.70
2018-07-17T02:20:06.951Z,15.70
2018-07-17T02:22:34.804Z,15.70
2018-07-17T02:25:02.493Z,15.60
2018-07-17T02:27:30.361Z,15.50
2018-07-17T02:29:58.364Z,15.50
2018-07-17T02:32:26.076Z,15.40
2018-07-17T02:34:54.237Z,15.40
2018-07-17T02:37:22.104Z,15.30
2018-07-17T02:39:50.477Z,15.20
2018-07-17T02:42:18.269Z,15.20
2018-07-17T02:44:46.285Z,15.30
2018-07-17T02:47:13.972Z,15.40
2018-07-17T02:49:42.292Z,15.50
2018-07-17T02:52:10.368Z,15.60
2018-07-17T02:54:38.100Z,15.60
2018-07-17T02:57:05.809Z,15.50
2018-07-17T02:59:33.780Z,15.40
2018-07-17T03:02:01.480Z,15.40
2018-07-17T03:04:29.312Z,15.30
2018-07-17T03:06:57.095Z,15.20
2018-07-17T03:09:24.935Z,15.20
2018-07-17T03:11:52.805Z,15.20
2018-07-17T03:16:52.814Z,15.00
2018-07-17T03:19:31.070Z,15.00
2018-07-17T03:22:09.059Z,14.90
2018-07-17T03:24:42.121Z,14.90
2018-07-17T03:27:09.864Z,14.90
2018-07-17T03:29:47.470Z,14.90
2018-07-17T03:32:26.919Z,15.00
2018-07-17T03:35:05.426Z,15.20
2018-07-17T03:37:33.201Z,15.10
2018-07-17T03:40:01.089Z,15.20
2018-07-17T03:42:29.082Z,15.30
2018-07-17T03:44:56.921Z,15.40
2018-07-17T03:47:24.696Z,15.40
2018-07-17T03:49:52.416Z,15.40
2018-07-17T03:52:20.356Z,15.30
2018-07-17T03:54:48.068Z,15.20
2018-07-17T03:57:15.851Z,15.10
2018-07-17T03:59:43.524Z,15.10
2018-07-17T04:02:11.815Z,15.00
2018-07-17T04:04:39.451Z,15.00
2018-07-17T04:07:07.371Z,15.10
2018-07-17T04:09:35.064Z,15.20
2018-07-17T04:12:02.818Z,15.20
2018-07-17T04:14:30.479Z,15.20
2018-07-17T04:16:58.551Z,15.20
2018-07-17T04:19:26.730Z,15.20
2018-07-17T04:21:54.453Z,15.10
2018-07-17T04:24:23.128Z,15.10
2018-07-17T04:26:51.406Z,15.20
2018-07-17T04:29:19.369Z,15.30
2018-07-17T04:31:48.518Z,15.40
2018-07-17T04:34:16.394Z,15.80
2018-07-17T04:36:44.142Z,16.40
2018-07-17T04:39:12.967Z,17.20
2018-07-17T04:41:41.029Z,18.00
2018-07-17T04:44:09.410Z,18.80
2018-07-17T04:46:37.202Z,19.30
2018-07-17T04:49:05.670Z,19.70
2018-07-17T04:51:33.343Z,20.10
2018-07-17T04:54:01.153Z,20.60
2018-07-17T04:56:28.885Z,21.00
2018-07-17T04:58:56.699Z,21.40
2018-07-17T05:01:24.704Z,21.50
2018-07-17T05:03:52.608Z,22.00
2018-07-17T05:06:20.343Z,22.00
2018-07-17T05:08:48.116Z,22.10
2018-07-17T05:11:16.043Z,22.40
2018-07-17T05:13:43.899Z,22.50
2018-07-17T05:16:11.615Z,22.50
2018-07-17T05:18:39.327Z,22.50
2018-07-17T05:21:07.387Z,22.60
2018-07-17T05:23:35.196Z,22.90
2018-07-17T05:26:02.976Z,23.20
2018-07-17T05:28:31.217Z,23.40
2018-07-17T05:33:35.100Z,23.40
2018-07-17T05:36:02.928Z,23.50
2018-07-17T05:38:30.823Z,23.70
2018-07-17T05:40:58.556Z,23.90
2018-07-17T05:43:26.231Z,24.10
2018-07-17T05:45:54.047Z,24.00
2018-07-17T05:48:22.556Z,23.50
2018-07-17T05:50:50.271Z,23.30
2018-07-17T05:53:18.827Z,23.10
2018-07-17T05:55:47.173Z,23.00
2018-07-17T05:58:15.042Z,23.20
2018-07-17T06:00:42.982Z,23.20
2018-07-17T06:03:10.863Z,23.50
2018-07-17T06:05:38.636Z,23.80
2018-07-17T06:08:06.639Z,24.60
2018-07-17T06:10:34.363Z,25.00
2018-07-17T06:13:02.147Z,25.30
2018-07-17T06:15:30.352Z,25.90
2018-07-17T06:17:58.476Z,26.80
2018-07-17T06:20:26.337Z,27.50
2018-07-17T06:22:54.053Z,28.40
2018-07-17T06:25:21.795Z,28.50
2018-07-17T06:27:49.497Z,28.80
2018-07-17T06:30:17.160Z,29.20
2018-07-17T06:32:44.854Z,29.20
2018-07-17T06:35:12.537Z,29.00
2018-07-17T06:37:40.295Z,28.00
2018-07-17T06:40:08.044Z,27.80
2018-07-17T06:42:35.712Z,28.20
2018-07-17T06:45:03.750Z,29.10
2018-07-17T06:47:32.472Z,30.00
2018-07-17T06:50:00.277Z,31.30
2018-07-17T06:52:28.065Z,31.70
2018-07-17T06:54:55.708Z,31.50
2018-07-17T06:57:23.410Z,31.60
2018-07-17T06:59:51.479Z,32.10
2018-07-17T07:02:20.861Z,32.70
2018-07-17T07:04:48.599Z,33.20
2018-07-17T07:07:16.977Z,33.80
2018-07-17T07:09:45.509Z,34.20
2018-07-17T07:12:13.194Z,34.30
2018-07-17T07:14:41.440Z,34.60
2018-07-17T07:17:09.179Z,34.50
2018-07-17T07:19:37.034Z,34.50
2018-07-17T07:22:04.862Z,34.90
2018-07-17T07:24:32.588Z,35.30
2018-07-17T07:27:00.499Z,35.50
2018-07-17T07:29:28.272Z,35.00
2018-07-17T07:31:56.615Z,35.30
2018-07-17T07:34:24.303Z,35.40
2018-07-17T07:36:52.089Z,35.40
2018-07-17T07:39:19.948Z,35.50
2018-07-17T07:41:48.028Z,36.20
2018-07-17T07:44:16.469Z,36.30
2018-07-17T07:46:44.470Z,36.40
2018-07-17T07:49:12.177Z,36.50
2018-07-17T07:51:40.481Z,36.50
2018-07-17T07:54:08.187Z,36.30
2018-07-17T07:56:35.878Z,36.30
2018-07-17T07:59:03.718Z,36.50
2018-07-17T08:01:31.401Z,36.20
2018-07-17T08:03:59.237Z,36.20
2018-07-17T08:06:26.929Z,35.40
2018-07-17T08:08:54.796Z,35.40
2018-07-17T08:11:22.568Z,36.00
2018-07-17T08:13:50.268Z,36.80
2018-07-17T08:16:18.020Z,37.70
2018-07-17T08:18:45.781Z,38.10
2018-07-17T08:21:13.684Z,38.00
2018-07-17T08:23:41.631Z,36.90
2018-07-17T08:26:09.793Z,36.90
2018-07-17T08:28:37.899Z,37.60
2018-07-17T08:31:06.512Z,37.80
2018-07-17T08:33:34.276Z,38.10
2018-07-17T08:36:02.112Z,38.60
2018-07-17T08:38:30.264Z,39.00
2018-07-17T08:40:58.134Z,39.40
2018-07-17T08:43:26.065Z,39.50
2018-07-17T08:45:54.435Z,39.40
2018-07-17T08:48:25.735Z,38.60
2018-07-17T08:50:53.385Z,38.60
2018-07-17T08:53:21.247Z,38.20
2018-07-17T08:55:49.050Z,38.60
2018-07-17T08:58:16.805Z,38.50
2018-07-17T09:00:44.721Z,38.50
2018-07-17T09:03:14.009Z,37.20
2018-07-17T09:05:41.942Z,36.50
2018-07-17T09:08:09.633Z,34.70
2018-07-17T09:10:37.397Z,36.00
2018-07-17T09:13:05.144Z,36.70
2018-07-17T09:15:33.072Z,36.70
2018-07-17T09:18:01.634Z,37.60
2018-07-17T09:20:29.480Z,38.40
2018-07-17T09:22:57.510Z,38.90
2018-07-17T09:25:31.374Z,39.30
2018-07-17T09:27:59.743Z,37.80
2018-07-17T09:30:32.053Z,36.10
2018-07-17T09:33:00.049Z,36.20
2018-07-17T09:35:27.840Z,36.70
2018-07-17T09:37:55.555Z,35.90
2018-07-17T09:40:23.286Z,34.30
2018-07-17T09:45:18.787Z,34.40
2018-07-17T09:47:46.653Z,35.90
2018-07-17T09:50:14.375Z,37.60
2018-07-17T09:52:42.078Z,38.80
2018-07-17T09:55:09.887Z,38.50
2018-07-17T09:57:37.664Z,37.70
2018-07-17T10:00:05.385Z,37.30
2018-07-17T10:02:33.102Z,37.30
2018-07-17T10:05:00.760Z,38.20
2018-07-17T10:07:28.602Z,37.30
2018-07-17T10:09:56.336Z,37.00
2018-07-17T10:12:24.895Z,36.80
2018-07-17T10:14:52.992Z,36.40
2018-07-17T10:17:20.708Z,35.70
2018-07-17T10:19:49.089Z,35.70
2018-07-17T10:22:16.786Z,34.80
2018-07-17T10:24:44.447Z,35.30
2018-07-17T10:27:12.249Z,36.10
2018-07-17T10:29:39.875Z,36.00
2018-07-17T10:32:08.421Z,35.80
2018-07-17T10:34:36.135Z,36.30
2018-07-17T10:37:03.976Z,35.70
2018-07-17T10:39:31.741Z,35.20
2018-07-17T10:41:59.378Z,35.80
2018-07-17T10:44:27.044Z,36.70
2018-07-17T10:46:54.738Z,36.50
2018-07-17T10:49:22.424Z,37.00
2018-07-17T10:51:50.069Z,36.30
2018-07-17T10:54:17.734Z,36.50
2018-07-17T10:56:45.416Z,36.20
2018-07-17T10:59:13.216Z,36.40
2018-07-17T11:04:08.756Z,36.10
2018-07-17T11:06:36.555Z,34.90
2018-07-17T11:09:05.175Z,35.40
2018-07-17T11:11:33.059Z,35.60
2018-07-17T11:16:28.596Z,35.10
2018-07-17T11:18:56.351Z,35.40
2018-07-17T11:21:24.735Z,34.80
2018-07-17T11:23:52.513Z,33.80
2018-07-17T11:26:20.263Z,33.00
2018-07-17T11:28:47.989Z,31.90
2018-07-17T11:31:15.757Z,31.30
2018-07-17T11:33:43.540Z,31.80
2018-07-17T11:36:11.361Z,32.10
2018-07-17T11:38:39.050Z,32.20
2018-07-17T11:41:06.822Z,32.40
2018-07-17T11:43:36.579Z,32.10
2018-07-17T11:46:04.553Z,31.40
2018-07-17T11:48:33.704Z,31.00
2018-07-17T11:51:02.589Z,30.80
2018-07-17T11:53:30.459Z,30.60
2018-07-17T11:55:58.356Z,31.20
2018-07-17T11:58:26.049Z,31.80
2018-07-17T12:00:55.942Z,32.30
2018-07-17T12:03:23.635Z,32.30
2018-07-17T12:05:51.409Z,31.80
2018-07-17T12:08:19.127Z,32.00
2018-07-17T12:10:46.989Z,32.40
2018-07-17T12:13:14.761Z,32.60
2018-07-17T12:15:42.589Z,32.60
2018-07-17T12:18:10.268Z,32.60
2018-07-17T12:20:38.234Z,32.30
2018-07-17T12:23:05.860Z,31.60
2018-07-17T12:25:33.571Z,31.90
2018-07-17T12:28:01.746Z,32.20
2018-07-17T12:30:29.458Z,32.10
2018-07-17T12:32:57.200Z,32.20
2018-07-17T12:35:24.933Z,32.20
2018-07-17T12:40:20.350Z,32.20
2018-07-17T12:42:48.130Z,32.30
2018-07-17T12:45:15.839Z,32.40
2018-07-17T12:47:43.617Z,32.30
2018-07-17T12:50:11.339Z,32.40
2018-07-17T12:52:39.028Z,32.00
2018-07-17T12:55:06.756Z,31.50
2018-07-17T12:57:34.471Z,31.40
2018-07-17T13:00:02.272Z,31.20
2018-07-17T13:02:30.286Z,31.60
2018-07-17T13:04:57.988Z,31.90
2018-07-17T13:09:53.512Z,31.90
2018-07-17T13:12:21.206Z,32.00
2018-07-17T13:14:49.155Z,31.90
2018-07-17T13:17:17.511Z,32.10
2018-07-17T13:19:45.199Z,32.00
2018-07-17T13:22:13.080Z,32.10
2018-07-17T13:24:40.865Z,31.90
2018-07-17T13:27:08.617Z,31.90
2018-07-17T13:29:36.428Z,31.80
2018-07-17T13:32:04.225Z,31.50
2018-07-17T13:34:34.503Z,30.60
2018-07-17T13:40:02.789Z,28.90
2018-07-17T13:42:30.616Z,28.20
2018-07-17T13:44:58.788Z,28.10
2018-07-17T13:47:26.604Z,28.00
2018-07-17T13:52:22.433Z,26.90
2018-07-17T13:54:50.155Z,26.60
2018-07-17T13:57:18.018Z,26.00
2018-07-17T13:59:45.747Z,26.20
2018-07-17T14:02:13.565Z,26.50
2018-07-17T14:04:41.264Z,26.90
2018-07-17T14:07:08.949Z,26.90
2018-07-17T14:09:37.691Z,26.60
2018-07-17T14:12:05.653Z,26.90
2018-07-17T14:14:34.125Z,27.20
2018-07-17T14:17:02.037Z,27.20
2018-07-17T14:19:29.876Z,27.10
2018-07-17T14:21:57.843Z,26.90
2018-07-17T14:24:27.595Z,26.60
2018-07-17T14:26:56.497Z,26.60
2018-07-17T14:29:24.200Z,26.20
2018-07-17T14:34:20.740Z,26.40
2018-07-17T14:36:48.707Z,26.30
2018-07-17T14:39:16.576Z,26.40
2018-07-17T14:44:12.107Z,26.50
2018-07-17T14:46:39.817Z,26.40
2018-07-17T14:49:07.807Z,26.10
2018-07-17T14:51:35.720Z,26.10
2018-07-17T14:54:08.062Z,26.20
2018-07-17T15:01:31.799Z,26.70
2018-07-17T15:03:59.778Z,26.70
2018-07-17T15:06:27.545Z,26.60
2018-07-17T15:08:55.333Z,26.50
2018-07-17T15:11:23.945Z,26.30
2018-07-17T15:16:19.430Z,26.80
2018-07-17T15:18:47.627Z,26.80
2018-07-17T15:21:15.783Z,26.90
2018-07-17T15:23:43.557Z,27.00
2018-07-17T15:26:11.233Z,26.80
2018-07-17T15:28:38.952Z,26.70
2018-07-17T15:31:07.167Z,26.90
2018-07-17T15:33:34.907Z,27.30
2018-07-17T15:36:02.625Z,27.90
2018-07-17T15:38:30.598Z,28.40
2018-07-17T15:40:58.408Z,28.80
2018-07-17T15:43:26.155Z,28.90
2018-07-17T15:45:53.871Z,28.70
2018-07-17T15:48:21.569Z,28.90
2018-07-17T15:50:49.331Z,29.00
2018-07-17T15:53:16.984Z,29.00
2018-07-17T15:55:44.984Z,29.10
2018-07-17T15:58:12.800Z,29.00
2018-07-17T16:00:40.448Z,28.90
2018-07-17T16:03:08.396Z,28.90
2018-07-17T16:05:36.182Z,28.90
2018-07-17T16:08:04.204Z,28.70
2018-07-17T16:10:31.932Z,28.60
2018-07-17T16:13:00.736Z,28.60
2018-07-17T16:15:28.734Z,28.60
2018-07-17T16:17:56.395Z,28.60
2018-07-17T16:20:24.145Z,28.60
2018-07-17T16:23:04.265Z,28.60
2018-07-17T16:25:32.194Z,28.60
2018-07-17T16:27:59.967Z,28.60
2018-07-17T16:30:27.659Z,28.50
2018-07-17T16:32:55.607Z,28.20
2018-07-17T16:35:24.954Z,28.00
2018-07-17T16:37:52.624Z,28.00
2018-07-17T16:40:20.348Z,27.80
2018-07-17T16:42:48.077Z,27.80
2018-07-17T16:45:15.822Z,27.80
2018-07-17T16:47:44.655Z,27.90
2018-07-17T16:50:12.406Z,27.90
2018-07-17T16:52:40.742Z,28.00
2018-07-17T16:55:08.624Z,28.10
2018-07-17T16:57:36.291Z,28.10
2018-07-17T17:00:04.475Z,28.10
2018-07-17T17:02:32.287Z,28.10
2018-07-17T17:04:59.997Z,28.10
2018-07-17T17:07:27.860Z,28.00
2018-07-17T17:09:56.818Z,28.00
2018-07-17T17:12:24.708Z,28.00
2018-07-17T17:14:53.477Z,27.90
2018-07-17T17:17:22.068Z,28.00
2018-07-17T17:19:49.752Z,27.90
2018-07-17T17:22:18.232Z,27.90
2018-07-17T17:24:45.852Z,27.80
2018-07-17T17:27:13.730Z,27.70
2018-07-17T17:29:41.960Z,27.80
2018-07-17T17:32:09.896Z,27.70
2018-07-17T17:34:37.580Z,27.70
2018-07-17T17:37:06.575Z,27.70
2018-07-17T17:39:34.515Z,27.60
2018-07-17T17:44:30.339Z,27.70
2018-07-17T17:46:58.055Z,27.70
2018-07-17T17:49:26.022Z,27.60
2018-07-17T17:51:54.139Z,27.50
2018-07-17T17:54:21.802Z,27.40
2018-07-17T17:56:49.524Z,27.30
2018-07-17T17:59:17.696Z,27.20
2018-07-17T18:01:46.281Z,27.10
2018-07-17T18:04:14.243Z,27.00
2018-07-17T18:06:42.311Z,26.90
2018-07-17T18:09:10.391Z,26.70
2018-07-17T18:11:38.411Z,26.60
2018-07-17T18:14:06.201Z,26.40
2018-07-17T18:16:34.146Z,26.30
2018-07-17T18:19:03.664Z,26.20
2018-07-17T18:21:31.455Z,26.10
2018-07-17T18:23:59.452Z,25.90
2018-07-17T18:26:27.153Z,25.90
2018-07-17T18:28:55.159Z,25.80
2018-07-17T18:31:23.721Z,25.80
2018-07-17T18:33:51.459Z,25.80
2018-07-17T18:36:19.460Z,25.70
2018-07-17T18:38:47.644Z,25.80
2018-07-17T18:41:15.723Z,25.80
2018-07-17T18:46:11.806Z,25.70
2018-07-17T18:48:44.216Z,25.60
2018-07-17T18:51:12.458Z,25.50
2018-07-17T18:53:41.241Z,25.40
2018-07-17T18:56:23.528Z,25.20
2018-07-17T18:58:51.470Z,25.10
2018-07-17T19:01:19.465Z,25.00
2018-07-17T19:03:47.182Z,24.80
2018-07-17T19:06:14.896Z,24.70
2018-07-17T19:08:42.625Z,24.50
2018-07-17T19:11:10.300Z,24.30
2018-07-17T19:13:38.248Z,24.10
2018-07-17T19:16:06.103Z,24.00
2018-07-17T19:18:33.772Z,23.80
2018-07-17T19:21:01.597Z,23.70
2018-07-17T19:23:29.920Z,23.50
2018-07-17T19:25:57.750Z,23.30
2018-07-17T19:28:25.509Z,23.20
2018-07-17T19:30:53.510Z,23.10
2018-07-17T19:33:21.755Z,23.00
2018-07-17T19:35:49.799Z,22.90
2018-07-17T19:38:17.609Z,22.80
2018-07-17T19:41:02.971Z,22.70
2018-07-17T19:43:48.714Z,22.70
2018-07-17T19:46:32.534Z,22.50
2018-07-17T19:49:04.727Z,22.40
2018-07-17T19:51:48.260Z,22.30
2018-07-17T19:54:34.045Z,22.20
2018-07-17T19:57:23.431Z,22.10
2018-07-17T20:00:11.910Z,21.90
2018-07-17T20:02:56.291Z,21.80
2018-07-17T20:05:23.984Z,21.60
2018-07-17T20:07:52.594Z,21.50
2018-07-17T20:10:20.368Z,21.30
2018-07-17T20:12:48.168Z,21.20
2018-07-17T20:15:16.024Z,21.00
2018-07-17T20:17:43.871Z,21.00
2018-07-17T20:20:11.590Z,21.00
2018-07-17T20:22:40.026Z,20.90
2018-07-17T20:25:07.720Z,20.80
2018-07-17T20:27:35.660Z,20.70
2018-07-17T20:30:05.726Z,20.60
2018-07-17T20:32:33.511Z,20.50
2018-07-17T20:35:01.284Z,20.50
2018-07-17T20:37:29.118Z,20.30
2018-07-17T20:39:57.131Z,20.30
2018-07-17T20:42:25.028Z,20.20
2018-07-17T20:44:53.178Z,20.10
2018-07-17T20:47:20.823Z,19.90
2018-07-17T20:49:48.623Z,19.90
2018-07-17T20:52:16.575Z,19.80
2018-07-17T20:54:44.667Z,19.70
2018-07-17T20:57:12.413Z,19.70
2018-07-17T20:59:56.958Z,19.60
2018-07-17T21:02:24.711Z,19.60
2018-07-17T21:04:52.505Z,19.60
2018-07-17T21:07:20.740Z,19.70
2018-07-17T21:12:16.308Z,19.70
2018-07-17T21:14:44.412Z,19.60
2018-07-17T21:19:44.277Z,19.50
2018-07-17T21:22:12.284Z,19.40
2018-07-17T21:24:41.054Z,19.30
2018-07-17T21:27:09.179Z,19.30
2018-07-17T21:29:36.891Z,19.50
2018-07-17T21:32:04.785Z,19.60
2018-07-17T21:34:32.840Z,19.70
2018-07-17T21:37:00.540Z,19.70
2018-07-17T21:39:28.367Z,19.70
2018-07-17T21:41:56.130Z,19.60
2018-07-17T21:46:51.623Z,19.70
2018-07-17T21:49:19.306Z,19.60
2018-07-17T21:51:48.208Z,19.70
2018-07-17T21:54:15.992Z,19.60
2018-07-17T21:56:43.996Z,19.70
2018-07-17T21:59:11.693Z,19.70
2018-07-17T22:01:39.551Z,19.80
2018-07-17T22:04:07.440Z,19.80
2018-07-17T22:06:36.863Z,20.10
2018-07-17T22:09:09.332Z,20.10
2018-07-17T22:11:37.232Z,20.10
2018-07-17T22:14:04.964Z,20.20
2018-07-17T22:16:32.638Z,20.20
2018-07-17T22:19:00.495Z,20.20
2018-07-17T22:21:28.151Z,20.30
2018-07-17T22:23:56.036Z,20.40
2018-07-17T22:26:23.999Z,20.40
2018-07-17T22:28:51.753Z,20.40
2018-07-17T22:31:19.599Z,20.40
2018-07-17T22:33:47.568Z,20.30
2018-07-17T22:36:15.326Z,20.30
2018-07-17T22:38:46.800Z,20.30
2018-07-17T22:41:14.665Z,20.40
2018-07-17T22:43:42.638Z,20.40
2018-07-17T22:46:11.366Z,20.30
2018-07-17T22:48:39.316Z,20.20
2018-07-17T22:51:08.750Z,20.00
2018-07-17T22:53:36.706Z,19.80
2018-07-17T22:56:04.720Z,19.80
2018-07-17T22:58:32.409Z,19.60
2018-07-17T23:01:00.292Z,19.40
2018-07-17T23:03:27.986Z,19.20
2018-07-17T23:05:55.744Z,19.20
2018-07-17T23:08:23.530Z,19.10
2018-07-17T23:10:51.873Z,19.00
2018-07-17T23:13:19.572Z,18.80
2018-07-17T23:15:47.463Z,18.70
2018-07-17T23:18:15.324Z,18.60
2018-07-17T23:20:43.196Z,18.60
2018-07-17T23:23:12.147Z,18.50
2018-07-17T23:25:40.290Z,18.40
2018-07-17T23:28:08.041Z,18.30
2018-07-17T23:30:35.711Z,18.20
2018-07-17T23:33:03.623Z,18.20
2018-07-17T23:35:31.327Z,18.10
2018-07-17T23:37:59.009Z,18.10
2018-07-17T23:40:26.950Z,18.00
2018-07-17T23:42:54.667Z,18.00
2018-07-17T23:45:22.429Z,18.00
2018-07-17T23:47:50.241Z,18.00
2018-07-17T23:50:18.116Z,18.00
2018-07-17T23:52:45.850Z,18.00
2018-07-17T23:55:13.706Z,17.90
2018-07-17T23:57:41.416Z,17.70
